sensor_id;sensor_type;location;lat;lon;timestamp;pressure;altitude;pressure_sealevel;temperature;humidity
58757;BME280;44527;47.460;19.016;2023-03-25T00:01:37;99364.09;;;15.47;58.91
58757;BME280;44527;47.460;19.016;2023-03-25T00:04:40;99369.72;;;15.52;58.08
58757;BME280;44527;47.460;19.016;2023-03-25T00:07:42;99368.13;;;15.59;57.56
58757;BME280;44527;47.460;19.016;2023-03-25T00:10:44;99367.97;;;15.60;56.95
58757;BME280;44527;47.460;19.016;2023-03-25T00:13:46;99363.47;;;15.53;57.53
58757;BME280;44527;47.460;19.016;2023-03-25T00:16:49;99363.63;;;15.51;57.58
58757;BME280;44527;47.460;19.016;2023-03-25T00:19:54;99367.41;;;15.49;58.35
58757;BME280;44527;47.460;19.016;2023-03-25T00:22:56;99364.31;;;15.53;57.36
58757;BME280;44527;47.460;19.016;2023-03-25T00:25:58;99363.28;;;15.46;57.84
58757;BME280;44527;47.460;19.016;2023-03-25T00:29:01;99374.88;;;15.53;58.18
58757;BME280;44527;47.460;19.016;2023-03-25T00:32:04;99372.28;;;15.61;57.99
58757;BME280;44527;47.460;19.016;2023-03-25T00:35:06;99370.09;;;15.57;58.10
58757;BME280;44527;47.460;19.016;2023-03-25T00:38:12;99377.91;;;15.67;58.56
58757;BME280;44527;47.460;19.016;2023-03-25T00:44:24;99369.97;;;15.58;58.80
58757;BME280;44527;47.460;19.016;2023-03-25T00:47:26;99363.44;;;15.71;58.52
58757;BME280;44527;47.460;19.016;2023-03-25T00:50:28;99368.25;;;15.75;58.99
58757;BME280;44527;47.460;19.016;2023-03-25T00:53:32;99364.34;;;15.61;59.60
58757;BME280;44527;47.460;19.016;2023-03-25T00:56:34;99362.44;;;15.72;59.20
58757;BME280;44527;47.460;19.016;2023-03-25T00:59:37;99362.94;;;15.75;59.85
58757;BME280;44527;47.460;19.016;2023-03-25T01:02:39;99373.47;;;15.67;60.58
58757;BME280;44527;47.460;19.016;2023-03-25T01:05:41;99365.53;;;15.67;61.41
58757;BME280;44527;47.460;19.016;2023-03-25T01:08:43;99351.59;;;15.57;62.15
58757;BME280;44527;47.460;19.016;2023-03-25T01:11:47;99358.00;;;15.54;62.52
58757;BME280;44527;47.460;19.016;2023-03-25T01:14:49;99362.28;;;15.47;63.63
58757;BME280;44527;47.460;19.016;2023-03-25T01:17:51;99358.06;;;15.36;64.57
58757;BME280;44527;47.460;19.016;2023-03-25T01:20:53;99360.87;;;15.35;65.06
58757;BME280;44527;47.460;19.016;2023-03-25T01:23:56;99356.84;;;15.23;66.12
58757;BME280;44527;47.460;19.016;2023-03-25T01:26:58;99356.56;;;15.08;67.48
58757;BME280;44527;47.460;19.016;2023-03-25T01:30:02;99361.84;;;15.08;67.92
58757;BME280;44527;47.460;19.016;2023-03-25T01:33:05;99363.47;;;15.01;68.64
58757;BME280;44527;47.460;19.016;2023-03-25T01:36:07;99369.37;;;14.94;69.50
58757;BME280;44527;47.460;19.016;2023-03-25T01:39:15;99367.63;;;14.85;71.15
58757;BME280;44527;47.460;19.016;2023-03-25T01:42:19;99370.59;;;14.82;72.22
58757;BME280;44527;47.460;19.016;2023-03-25T01:45:23;99359.34;;;14.62;74.34
58757;BME280;44527;47.460;19.016;2023-03-25T01:51:37;99373.94;;;14.39;77.33
58757;BME280;44527;47.460;19.016;2023-03-25T01:54:43;99376.81;;;14.45;77.34
58757;BME280;44527;47.460;19.016;2023-03-25T01:57:46;99378.59;;;14.27;78.52
58757;BME280;44527;47.460;19.016;2023-03-25T02:00:49;99373.75;;;14.22;79.22
58757;BME280;44527;47.460;19.016;2023-03-25T02:03:52;99380.44;;;14.17;80.29
58757;BME280;44527;47.460;19.016;2023-03-25T02:06:55;99377.44;;;14.12;82.94
58757;BME280;44527;47.460;19.016;2023-03-25T02:10:00;99375.59;;;13.94;82.62
58757;BME280;44527;47.460;19.016;2023-03-25T02:13:04;99384.66;;;13.82;84.53
58757;BME280;44527;47.460;19.016;2023-03-25T02:16:25;99375.56;;;13.67;86.58
58757;BME280;44527;47.460;19.016;2023-03-25T02:22:37;99374.28;;;13.33;89.09
58757;BME280;44527;47.460;19.016;2023-03-25T02:42:13;99377.63;;;12.97;94.21
58757;BME280;44527;47.460;19.016;2023-03-25T02:48:26;99356.41;;;12.88;92.58
58757;BME280;44527;47.460;19.016;2023-03-25T02:51:35;99363.38;;;12.80;94.55
58757;BME280;44527;47.460;19.016;2023-03-25T02:54:39;99359.22;;;12.87;92.59
58757;BME280;44527;47.460;19.016;2023-03-25T02:57:44;99361.84;;;12.77;92.33
58757;BME280;44527;47.460;19.016;2023-03-25T03:00:47;99368.94;;;12.77;91.66
58757;BME280;44527;47.460;19.016;2023-03-25T03:03:51;99361.56;;;12.80;90.77
58757;BME280;44527;47.460;19.016;2023-03-25T03:06:54;99362.53;;;12.70;92.11
58757;BME280;44527;47.460;19.016;2023-03-25T03:13:16;99379.19;;;12.80;90.84
58757;BME280;44527;47.460;19.016;2023-03-25T03:16:32;99374.31;;;12.75;90.14
58757;BME280;44527;47.460;19.016;2023-03-25T03:19:43;99372.94;;;12.71;91.21
58757;BME280;44527;47.460;19.016;2023-03-25T03:22:57;99380.69;;;12.63;90.48
58757;BME280;44527;47.460;19.016;2023-03-25T03:26:07;99379.84;;;12.53;91.01
58757;BME280;44527;47.460;19.016;2023-03-25T03:29:16;99385.41;;;12.50;94.33
58757;BME280;44527;47.460;19.016;2023-03-25T03:32:25;99397.41;;;12.42;95.97
58757;BME280;44527;47.460;19.016;2023-03-25T03:35:44;99399.66;;;12.37;98.80
58757;BME280;44527;47.460;19.016;2023-03-25T03:39:02;99402.38;;;12.16;100.00
58757;BME280;44527;47.460;19.016;2023-03-25T03:42:09;99405.81;;;12.07;100.00
58757;BME280;44527;47.460;19.016;2023-03-25T03:45:16;99407.06;;;12.13;100.00
58757;BME280;44527;47.460;19.016;2023-03-25T03:48:26;99414.59;;;11.96;100.00
58757;BME280;44527;47.460;19.016;2023-03-25T03:51:31;99424.81;;;11.90;100.00
58757;BME280;44527;47.460;19.016;2023-03-25T03:54:41;99426.09;;;11.95;100.00
58757;BME280;44527;47.460;19.016;2023-03-25T03:57:49;99434.19;;;11.83;100.00
58757;BME280;44527;47.460;19.016;2023-03-25T04:01:10;99438.03;;;11.79;100.00
58757;BME280;44527;47.460;19.016;2023-03-25T04:04:17;99445.47;;;11.73;100.00
58757;BME280;44527;47.460;19.016;2023-03-25T04:07:31;99448.16;;;11.83;100.00
58757;BME280;44527;47.460;19.016;2023-03-25T04:10:54;99453.06;;;11.88;100.00
58757;BME280;44527;47.460;19.016;2023-03-25T04:14:00;99451.38;;;11.87;100.00
58757;BME280;44527;47.460;19.016;2023-03-25T04:17:04;99461.53;;;11.91;100.00
58757;BME280;44527;47.460;19.016;2023-03-25T04:20:06;99464.19;;;11.80;100.00
58757;BME280;44527;47.460;19.016;2023-03-25T04:23:11;99464.25;;;11.90;100.00
58757;BME280;44527;47.460;19.016;2023-03-25T04:26:17;99471.72;;;11.85;100.00
58757;BME280;44527;47.460;19.016;2023-03-25T04:29:20;99473.56;;;11.94;100.00
58757;BME280;44527;47.460;19.016;2023-03-25T04:32:22;99480.03;;;11.90;100.00
58757;BME280;44527;47.460;19.016;2023-03-25T04:35:29;99479.72;;;11.83;100.00
58757;BME280;44527;47.460;19.016;2023-03-25T04:38:34;99481.72;;;11.91;100.00
58757;BME280;44527;47.460;19.016;2023-03-25T04:41:38;99478.66;;;11.86;100.00
58757;BME280;44527;47.460;19.016;2023-03-25T04:44:40;99484.25;;;11.81;100.00
58757;BME280;44527;47.460;19.016;2023-03-25T04:47:43;99491.37;;;11.90;100.00
58757;BME280;44527;47.460;19.016;2023-03-25T04:50:48;99494.50;;;12.05;100.00
58757;BME280;44527;47.460;19.016;2023-03-25T04:53:52;99501.81;;;11.81;100.00
58757;BME280;44527;47.460;19.016;2023-03-25T04:56:54;99501.00;;;11.80;100.00
58757;BME280;44527;47.460;19.016;2023-03-25T05:00:00;99505.78;;;11.75;100.00
58757;BME280;44527;47.460;19.016;2023-03-25T05:03:02;99501.06;;;11.90;100.00
58757;BME280;44527;47.460;19.016;2023-03-25T05:06:05;99511.06;;;11.96;100.00
58757;BME280;44527;47.460;19.016;2023-03-25T05:09:09;99510.66;;;11.91;100.00
58757;BME280;44527;47.460;19.016;2023-03-25T05:12:11;99519.09;;;11.94;100.00
58757;BME280;44527;47.460;19.016;2023-03-25T05:15:14;99519.41;;;12.01;100.00
58757;BME280;44527;47.460;19.016;2023-03-25T05:18:18;99517.03;;;11.98;100.00
58757;BME280;44527;47.460;19.016;2023-03-25T05:21:20;99523.19;;;12.08;100.00
58757;BME280;44527;47.460;19.016;2023-03-25T05:24:23;99525.75;;;11.99;100.00
58757;BME280;44527;47.460;19.016;2023-03-25T05:27:25;99534.69;;;12.07;100.00
58757;BME280;44527;47.460;19.016;2023-03-25T05:30:29;99531.44;;;11.94;100.00
58757;BME280;44527;47.460;19.016;2023-03-25T05:33:34;99539.44;;;11.92;100.00
58757;BME280;44527;47.460;19.016;2023-03-25T05:36:38;99534.56;;;11.88;100.00
58757;BME280;44527;47.460;19.016;2023-03-25T05:39:41;99529.09;;;11.80;100.00
58757;BME280;44527;47.460;19.016;2023-03-25T05:42:46;99531.84;;;11.78;100.00
58757;BME280;44527;47.460;19.016;2023-03-25T05:45:49;99535.87;;;11.82;100.00
58757;BME280;44527;47.460;19.016;2023-03-25T05:48:52;99534.84;;;11.85;100.00
58757;BME280;44527;47.460;19.016;2023-03-25T05:51:54;99526.00;;;11.74;100.00
58757;BME280;44527;47.460;19.016;2023-03-25T05:54:57;99527.44;;;11.79;100.00
58757;BME280;44527;47.460;19.016;2023-03-25T05:57:59;99537.63;;;11.93;100.00
58757;BME280;44527;47.460;19.016;2023-03-25T06:01:02;99530.97;;;12.10;100.00
58757;BME280;44527;47.460;19.016;2023-03-25T06:04:05;99538.19;;;11.96;100.00
58757;BME280;44527;47.460;19.016;2023-03-25T06:07:11;99534.56;;;11.88;100.00
58757;BME280;44527;47.460;19.016;2023-03-25T06:10:16;99547.22;;;11.83;100.00
58757;BME280;44527;47.460;19.016;2023-03-25T06:13:19;99546.25;;;11.84;100.00
58757;BME280;44527;47.460;19.016;2023-03-25T06:16:22;99553.09;;;11.86;100.00
58757;BME280;44527;47.460;19.016;2023-03-25T06:19:28;99549.19;;;12.02;100.00
58757;BME280;44527;47.460;19.016;2023-03-25T06:22:30;99547.00;;;12.07;100.00
58757;BME280;44527;47.460;19.016;2023-03-25T06:25:34;99533.28;;;12.03;100.00
58757;BME280;44527;47.460;19.016;2023-03-25T06:28:37;99541.09;;;11.93;100.00
58757;BME280;44527;47.460;19.016;2023-03-25T06:31:39;99543.41;;;11.87;100.00
58757;BME280;44527;47.460;19.016;2023-03-25T06:34:42;99548.97;;;11.93;100.00
58757;BME280;44527;47.460;19.016;2023-03-25T06:37:45;99537.00;;;12.01;100.00
58757;BME280;44527;47.460;19.016;2023-03-25T06:40:49;99543.53;;;12.06;100.00
58757;BME280;44527;47.460;19.016;2023-03-25T06:43:51;99554.94;;;12.16;100.00
58757;BME280;44527;47.460;19.016;2023-03-25T06:46:54;99552.50;;;12.25;100.00
58757;BME280;44527;47.460;19.016;2023-03-25T06:49:57;99553.84;;;12.19;100.00
58757;BME280;44527;47.460;19.016;2023-03-25T06:52:59;99563.88;;;12.35;98.62
58757;BME280;44527;47.460;19.016;2023-03-25T06:56:01;99566.03;;;12.51;97.79
58757;BME280;44527;47.460;19.016;2023-03-25T06:59:03;99562.34;;;12.73;96.15
58757;BME280;44527;47.460;19.016;2023-03-25T07:02:06;99582.34;;;12.85;95.70
58757;BME280;44527;47.460;19.016;2023-03-25T07:05:09;99572.16;;;13.21;91.55
58757;BME280;44527;47.460;19.016;2023-03-25T07:08:12;99573.16;;;13.20;94.70
58757;BME280;44527;47.460;19.016;2023-03-25T07:11:15;99573.47;;;13.75;90.68
58757;BME280;44527;47.460;19.016;2023-03-25T07:14:17;99576.56;;;14.27;85.79
58757;BME280;44527;47.460;19.016;2023-03-25T07:17:20;99577.88;;;14.60;85.35
58757;BME280;44527;47.460;19.016;2023-03-25T07:20:23;99583.13;;;15.15;81.88
58757;BME280;44527;47.460;19.016;2023-03-25T07:23:25;99585.53;;;15.62;80.61
58757;BME280;44527;47.460;19.016;2023-03-25T07:26:28;99599.13;;;16.03;75.92
58757;BME280;44527;47.460;19.016;2023-03-25T07:29:30;99594.97;;;16.27;74.23
58757;BME280;44527;47.460;19.016;2023-03-25T07:32:32;99587.66;;;16.21;73.48
58757;BME280;44527;47.460;19.016;2023-03-25T07:35:35;99586.91;;;16.28;72.25
58757;BME280;44527;47.460;19.016;2023-03-25T07:38:37;99602.75;;;16.54;70.30
58757;BME280;44527;47.460;19.016;2023-03-25T07:41:39;99598.06;;;16.14;70.95
58757;BME280;44527;47.460;19.016;2023-03-25T07:44:44;99600.53;;;15.90;72.93
58757;BME280;44527;47.460;19.016;2023-03-25T07:47:46;99601.22;;;15.92;72.31
58757;BME280;44527;47.460;19.016;2023-03-25T07:50:51;99599.41;;;15.74;72.54
58757;BME280;44527;47.460;19.016;2023-03-25T07:53:53;99591.84;;;15.79;72.76
58757;BME280;44527;47.460;19.016;2023-03-25T07:57:05;99594.53;;;15.88;76.72
58757;BME280;44527;47.460;19.016;2023-03-25T08:00:08;99590.41;;;16.11;74.51
58757;BME280;44527;47.460;19.016;2023-03-25T08:03:13;99582.00;;;16.42;71.17
58757;BME280;44527;47.460;19.016;2023-03-25T08:06:15;99586.50;;;16.49;68.08
58757;BME280;44527;47.460;19.016;2023-03-25T08:09:17;99590.31;;;16.47;65.14
58757;BME280;44527;47.460;19.016;2023-03-25T08:12:20;99601.78;;;16.29;64.70
58757;BME280;44527;47.460;19.016;2023-03-25T08:15:22;99600.38;;;16.43;63.08
58757;BME280;44527;47.460;19.016;2023-03-25T08:18:27;99603.13;;;16.60;63.57
58757;BME280;44527;47.460;19.016;2023-03-25T08:21:30;99612.41;;;16.64;65.39
58757;BME280;44527;47.460;19.016;2023-03-25T08:24:32;99601.66;;;16.65;61.80
58757;BME280;44527;47.460;19.016;2023-03-25T08:27:34;99598.03;;;16.40;63.24
58757;BME280;44527;47.460;19.016;2023-03-25T08:30:36;99599.28;;;16.88;62.64
58757;BME280;44527;47.460;19.016;2023-03-25T08:33:41;99586.97;;;16.45;60.19
58757;BME280;44527;47.460;19.016;2023-03-25T08:36:45;99591.78;;;16.49;61.97
58757;BME280;44527;47.460;19.016;2023-03-25T08:39:47;99592.09;;;16.46;62.02
58757;BME280;44527;47.460;19.016;2023-03-25T08:42:51;99595.38;;;16.40;60.79
58757;BME280;44527;47.460;19.016;2023-03-25T08:45:53;99593.62;;;16.49;58.14
58757;BME280;44527;47.460;19.016;2023-03-25T08:48:56;99582.37;;;16.55;59.32
58757;BME280;44527;47.460;19.016;2023-03-25T08:51:58;99581.75;;;16.61;58.93
58757;BME280;44527;47.460;19.016;2023-03-25T08:55:02;99580.19;;;16.76;57.74
58757;BME280;44527;47.460;19.016;2023-03-25T08:58:05;99587.44;;;17.09;56.33
58757;BME280;44527;47.460;19.016;2023-03-25T09:01:09;99580.50;;;17.24;58.14
58757;BME280;44527;47.460;19.016;2023-03-25T09:04:13;99577.03;;;17.32;57.30
58757;BME280;44527;47.460;19.016;2023-03-25T09:07:15;99572.44;;;17.58;56.18
58757;BME280;44527;47.460;19.016;2023-03-25T09:10:20;99571.31;;;17.85;53.71
58757;BME280;44527;47.460;19.016;2023-03-25T09:13:23;99576.09;;;17.90;54.83
58757;BME280;44527;47.460;19.016;2023-03-25T09:16:25;99575.75;;;17.68;53.59
58757;BME280;44527;47.460;19.016;2023-03-25T09:19:27;99572.13;;;17.78;55.17
58757;BME280;44527;47.460;19.016;2023-03-25T09:22:29;99579.41;;;18.00;54.57
58757;BME280;44527;47.460;19.016;2023-03-25T09:25:32;99579.41;;;17.92;52.88
58757;BME280;44527;47.460;19.016;2023-03-25T09:28:35;99580.41;;;17.99;54.92
58757;BME280;44527;47.460;19.016;2023-03-25T09:31:37;99586.38;;;18.01;52.51
58757;BME280;44527;47.460;19.016;2023-03-25T09:34:39;99566.97;;;18.01;51.90
58757;BME280;44527;47.460;19.016;2023-03-25T09:37:42;99570.22;;;18.35;51.92
58757;BME280;44527;47.460;19.016;2023-03-25T09:40:44;99569.84;;;18.47;51.96
58757;BME280;44527;47.460;19.016;2023-03-25T09:43:50;99576.63;;;18.57;50.72
58757;BME280;44527;47.460;19.016;2023-03-25T09:46:57;99574.59;;;18.68;49.23
58757;BME280;44527;47.460;19.016;2023-03-25T09:50:03;99584.09;;;18.62;49.89
58757;BME280;44527;47.460;19.016;2023-03-25T09:53:28;99586.00;;;18.85;50.17
58757;BME280;44527;47.460;19.016;2023-03-25T09:56:34;99589.06;;;18.73;48.86
58757;BME280;44527;47.460;19.016;2023-03-25T09:59:43;99582.72;;;18.82;49.50
58757;BME280;44527;47.460;19.016;2023-03-25T10:03:08;99593.59;;;18.48;49.09
58757;BME280;44527;47.460;19.016;2023-03-25T10:06:17;99587.41;;;18.64;49.94
58757;BME280;44527;47.460;19.016;2023-03-25T10:09:27;99585.16;;;18.36;48.60
58757;BME280;44527;47.460;19.016;2023-03-25T10:22:05;99593.84;;;17.89;49.18
58757;BME280;44527;47.460;19.016;2023-03-25T10:25:14;99593.84;;;17.81;51.36
58757;BME280;44527;47.460;19.016;2023-03-25T10:28:19;99587.00;;;17.62;51.47
58757;BME280;44527;47.460;19.016;2023-03-25T10:31:23;99579.56;;;17.58;52.42
58757;BME280;44527;47.460;19.016;2023-03-25T10:34:42;99592.69;;;17.92;51.46
58757;BME280;44527;47.460;19.016;2023-03-25T10:37:48;99585.78;;;18.55;48.63
58757;BME280;44527;47.460;19.016;2023-03-25T10:44:13;99589.66;;;18.28;50.85
58757;BME280;44527;47.460;19.016;2023-03-25T10:47:17;99594.03;;;17.80;52.10
58757;BME280;44527;47.460;19.016;2023-03-25T10:50:21;99583.34;;;17.47;49.19
58757;BME280;44527;47.460;19.016;2023-03-25T10:53:24;99589.00;;;17.52;49.10
58757;BME280;44527;47.460;19.016;2023-03-25T10:56:31;99589.34;;;17.49;51.70
58757;BME280;44527;47.460;19.016;2023-03-25T10:59:55;99585.84;;;17.65;51.16
58757;BME280;44527;47.460;19.016;2023-03-25T11:02:59;99590.03;;;17.84;50.22
58757;BME280;44527;47.460;19.016;2023-03-25T11:06:03;99585.38;;;18.02;48.46
58757;BME280;44527;47.460;19.016;2023-03-25T11:09:24;99590.16;;;18.23;47.61
58757;BME280;44527;47.460;19.016;2023-03-25T11:12:27;99586.50;;;18.24;46.48
58757;BME280;44527;47.460;19.016;2023-03-25T11:15:44;99582.59;;;17.79;47.62
58757;BME280;44527;47.460;19.016;2023-03-25T11:18:46;99589.87;;;17.77;47.69
58757;BME280;44527;47.460;19.016;2023-03-25T11:21:52;99593.03;;;17.89;47.11
58757;BME280;44527;47.460;19.016;2023-03-25T11:24:59;99600.28;;;17.71;47.64
58757;BME280;44527;47.460;19.016;2023-03-25T11:28:08;99600.84;;;17.82;48.35
58757;BME280;44527;47.460;19.016;2023-03-25T11:31:22;99600.34;;;18.03;47.22
58757;BME280;44527;47.460;19.016;2023-03-25T11:34:25;99592.81;;;18.31;47.13
58757;BME280;44527;47.460;19.016;2023-03-25T11:37:27;99602.03;;;18.60;45.44
58757;BME280;44527;47.460;19.016;2023-03-25T11:40:32;99577.78;;;17.91;44.65
58757;BME280;44527;47.460;19.016;2023-03-25T11:43:36;99587.38;;;17.92;44.66
58757;BME280;44527;47.460;19.016;2023-03-25T11:46:40;99595.34;;;17.76;45.29
58757;BME280;44527;47.460;19.016;2023-03-25T11:49:46;99598.31;;;17.48;46.08
58757;BME280;44527;47.460;19.016;2023-03-25T11:53:11;99596.81;;;17.62;46.70
58757;BME280;44527;47.460;19.016;2023-03-25T11:56:16;99595.69;;;17.81;45.52
58757;BME280;44527;47.460;19.016;2023-03-25T11:59:24;99595.34;;;17.84;44.51
58757;BME280;44527;47.460;19.016;2023-03-25T12:02:28;99601.62;;;17.58;45.34
58757;BME280;44527;47.460;19.016;2023-03-25T12:05:32;99589.72;;;17.79;44.20
58757;BME280;44527;47.460;19.016;2023-03-25T12:08:42;99598.16;;;17.90;42.98
58757;BME280;44527;47.460;19.016;2023-03-25T12:12:03;99596.63;;;17.72;43.33
58757;BME280;44527;47.460;19.016;2023-03-25T12:21:32;99594.25;;;17.19;43.78
58757;BME280;44527;47.460;19.016;2023-03-25T12:40:41;99566.25;;;17.25;44.21
58757;BME280;44527;47.460;19.016;2023-03-25T12:43:56;99561.47;;;17.53;41.94
58757;BME280;44527;47.460;19.016;2023-03-25T13:00:04;99540.59;;;17.91;41.69
58757;BME280;44527;47.460;19.016;2023-03-25T13:03:22;99547.06;;;17.80;41.66
58757;BME280;44527;47.460;19.016;2023-03-25T13:12:36;99535.78;;;17.45;41.92
58757;BME280;44527;47.460;19.016;2023-03-25T13:15:48;99541.41;;;17.51;41.56
58757;BME280;44527;47.460;19.016;2023-03-25T13:18:54;99542.50;;;17.07;42.54
58757;BME280;44527;47.460;19.016;2023-03-25T13:22:03;99539.91;;;17.23;42.64
58757;BME280;44527;47.460;19.016;2023-03-25T13:25:06;99537.06;;;17.17;43.00
58757;BME280;44527;47.460;19.016;2023-03-25T13:28:16;99527.81;;;17.37;42.67
58757;BME280;44527;47.460;19.016;2023-03-25T13:31:31;99538.75;;;17.51;43.15
58757;BME280;44527;47.460;19.016;2023-03-25T13:34:42;99541.72;;;17.31;42.24
58757;BME280;44527;47.460;19.016;2023-03-25T13:37:46;99532.44;;;17.35;41.64
58757;BME280;44527;47.460;19.016;2023-03-25T13:40:53;99534.94;;;17.20;41.46
58757;BME280;44527;47.460;19.016;2023-03-25T13:44:11;99536.59;;;17.21;40.94
58757;BME280;44527;47.460;19.016;2023-03-25T13:50:26;99538.38;;;17.05;41.20
58757;BME280;44527;47.460;19.016;2023-03-25T13:53:35;99536.50;;;16.81;41.73
58757;BME280;44527;47.460;19.016;2023-03-25T14:00:12;99537.44;;;16.71;41.60
58757;BME280;44527;47.460;19.016;2023-03-25T14:12:50;99542.06;;;16.35;43.24
58757;BME280;44527;47.460;19.016;2023-03-25T14:15:56;99553.56;;;16.18;43.89
58757;BME280;44527;47.460;19.016;2023-03-25T14:19:05;99552.53;;;16.11;43.74
58757;BME280;44527;47.460;19.016;2023-03-25T14:22:19;99542.59;;;15.87;44.96
58757;BME280;44527;47.460;19.016;2023-03-25T14:25:31;99536.44;;;16.04;43.82
58757;BME280;44527;47.460;19.016;2023-03-25T14:28:36;99540.06;;;16.03;44.64
58757;BME280;44527;47.460;19.016;2023-03-25T14:31:39;99536.22;;;16.23;44.53
58757;BME280;44527;47.460;19.016;2023-03-25T14:38:20;99536.47;;;16.12;44.29
58757;BME280;44527;47.460;19.016;2023-03-25T14:54:36;99533.44;;;15.99;42.42
58757;BME280;44527;47.460;19.016;2023-03-25T14:57:47;99531.97;;;15.78;42.38
58757;BME280;44527;47.460;19.016;2023-03-25T15:00:56;99531.13;;;15.78;41.67
58757;BME280;44527;47.460;19.016;2023-03-25T15:04:06;99527.44;;;15.97;41.81
58757;BME280;44527;47.460;19.016;2023-03-25T15:07:17;99523.19;;;15.78;40.82
58757;BME280;44527;47.460;19.016;2023-03-25T15:13:27;99526.34;;;15.81;39.14
58757;BME280;44527;47.460;19.016;2023-03-25T15:26:19;99529.41;;;15.51;39.09
58757;BME280;44527;47.460;19.016;2023-03-25T15:32:51;99528.81;;;15.39;41.29
58757;BME280;44527;47.460;19.016;2023-03-25T15:42:41;99537.19;;;15.52;42.38
58757;BME280;44527;47.460;19.016;2023-03-25T15:49:09;99530.22;;;15.33;42.42
58757;BME280;44527;47.460;19.016;2023-03-25T15:55:42;99534.03;;;15.13;42.86
58757;BME280;44527;47.460;19.016;2023-03-25T16:01:52;99531.03;;;14.80;42.82
58757;BME280;44527;47.460;19.016;2023-03-25T16:04:55;99522.78;;;14.65;42.42
58757;BME280;44527;47.460;19.016;2023-03-25T16:07:58;99522.53;;;14.59;41.79
58757;BME280;44527;47.460;19.016;2023-03-25T16:14:22;99521.09;;;14.37;42.15
58757;BME280;44527;47.460;19.016;2023-03-25T16:17:28;99523.44;;;14.40;43.49
58757;BME280;44527;47.460;19.016;2023-03-25T16:20:32;99522.91;;;14.36;42.79
58757;BME280;44527;47.460;19.016;2023-03-25T16:23:36;99521.09;;;14.37;42.46
58757;BME280;44527;47.460;19.016;2023-03-25T16:26:40;99520.72;;;14.22;42.79
58757;BME280;44527;47.460;19.016;2023-03-25T16:29:46;99521.34;;;14.06;42.70
58757;BME280;44527;47.460;19.016;2023-03-25T16:32:48;99528.72;;;14.02;42.93
58757;BME280;44527;47.460;19.016;2023-03-25T16:36:04;99537.19;;;13.96;42.63
58757;BME280;44527;47.460;19.016;2023-03-25T16:39:11;99537.06;;;13.88;43.06
58757;BME280;44527;47.460;19.016;2023-03-25T16:42:16;99538.06;;;13.87;43.57
58757;BME280;44527;47.460;19.016;2023-03-25T16:45:19;99540.44;;;13.81;43.49
58757;BME280;44527;47.460;19.016;2023-03-25T16:48:29;99545.84;;;13.69;44.01
58757;BME280;44527;47.460;19.016;2023-03-25T16:51:32;99536.44;;;13.57;43.98
58757;BME280;44527;47.460;19.016;2023-03-25T16:57:51;99543.09;;;13.32;44.96
58757;BME280;44527;47.460;19.016;2023-03-25T17:00:54;99544.63;;;13.35;45.47
58757;BME280;44527;47.460;19.016;2023-03-25T17:04:05;99540.19;;;13.25;45.62
58757;BME280;44527;47.460;19.016;2023-03-25T17:07:13;99542.22;;;13.22;45.71
58757;BME280;44527;47.460;19.016;2023-03-25T17:10:22;99539.13;;;13.07;46.48
58757;BME280;44527;47.460;19.016;2023-03-25T17:13:41;99540.50;;;12.92;46.70
58757;BME280;44527;47.460;19.016;2023-03-25T17:16:45;99541.22;;;12.94;47.22
58757;BME280;44527;47.460;19.016;2023-03-25T17:19:50;99548.94;;;12.76;47.61
58757;BME280;44527;47.460;19.016;2023-03-25T17:22:55;99548.78;;;12.68;47.73
58757;BME280;44527;47.460;19.016;2023-03-25T17:25:59;99549.72;;;12.67;47.66
58757;BME280;44527;47.460;19.016;2023-03-25T17:29:04;99553.47;;;12.64;47.82
58757;BME280;44527;47.460;19.016;2023-03-25T17:32:08;99556.22;;;12.53;48.75
58757;BME280;44527;47.460;19.016;2023-03-25T17:35:24;99552.69;;;12.42;48.99
58757;BME280;44527;47.460;19.016;2023-03-25T17:38:30;99555.00;;;12.36;50.55
58757;BME280;44527;47.460;19.016;2023-03-25T17:41:35;99564.69;;;12.26;51.40
58757;BME280;44527;47.460;19.016;2023-03-25T17:44:39;99562.94;;;12.15;51.88
58757;BME280;44527;47.460;19.016;2023-03-25T17:47:42;99567.91;;;12.08;52.36
58757;BME280;44527;47.460;19.016;2023-03-25T17:50:48;99573.00;;;12.00;51.20
58757;BME280;44527;47.460;19.016;2023-03-25T17:53:51;99579.28;;;11.88;53.59
58757;BME280;44527;47.460;19.016;2023-03-25T17:56:53;99579.28;;;11.77;54.71
58757;BME280;44527;47.460;19.016;2023-03-25T17:59:55;99579.28;;;11.56;55.39
58757;BME280;44527;47.460;19.016;2023-03-25T18:02:58;99583.13;;;11.52;54.21
58757;BME280;44527;47.460;19.016;2023-03-25T18:06:01;99581.81;;;11.46;53.80
58757;BME280;44527;47.460;19.016;2023-03-25T18:09:05;99583.03;;;11.42;53.84
58757;BME280;44527;47.460;19.016;2023-03-25T18:12:09;99589.50;;;11.38;53.71
58757;BME280;44527;47.460;19.016;2023-03-25T18:15:11;99596.78;;;11.34;53.41
58757;BME280;44527;47.460;19.016;2023-03-25T18:18:15;99603.25;;;11.30;53.64
58757;BME280;44527;47.460;19.016;2023-03-25T18:21:17;99607.94;;;11.26;53.50
58757;BME280;44527;47.460;19.016;2023-03-25T18:24:22;99613.69;;;11.20;54.02
58757;BME280;44527;47.460;19.016;2023-03-25T18:27:24;99606.97;;;11.16;54.76
58757;BME280;44527;47.460;19.016;2023-03-25T18:30:46;99614.41;;;11.11;54.89
58757;BME280;44527;47.460;19.016;2023-03-25T18:33:50;99624.09;;;10.99;56.05
58757;BME280;44527;47.460;19.016;2023-03-25T18:36:52;99621.63;;;10.87;56.88
58757;BME280;44527;47.460;19.016;2023-03-25T18:39:55;99616.34;;;10.75;57.67
58757;BME280;44527;47.460;19.016;2023-03-25T18:42:57;99627.09;;;10.61;58.37
58757;BME280;44527;47.460;19.016;2023-03-25T18:45:59;99624.72;;;10.47;58.41